Time;durP1;ratioP1;P1;durP2;ratioP2;P2;SDS_P1;SDS_P2;PMS_P1;PMS_P2;Temp;Humidity;BMP_temperature;BMP_pressure;BME280_temperature;BME280_humidity;BME280_pressure;Samples;Min_cycle;Max_cycle;Signal;HPM_P1;HPM_P2
2022/01/11 00:00:48;;;;;;;5.18;4.53;;;5.00;99.90;;;;;;5028233;28;20708;-68
2022/01/11 00:03:18;;;;;;;6.60;5.53;;;5.00;99.90;;;;;;5028470;28;20283;-66
2022/01/11 00:05:52;;;;;;;4.10;3.70;;;5.00;99.90;;;;;;5029055;28;20240;-68
2022/01/11 00:08:31;;;;;;;6.80;5.07;;;5.00;99.90;;;;;;5029088;28;20552;-67
2022/01/11 00:11:04;;;;;;;5.15;4.55;;;5.00;99.90;;;;;;5020439;28;20232;-68
2022/01/11 00:13:33;;;;;;;4.50;4.07;;;5.00;99.90;;;;;;5025419;28;20212;-67
2022/01/11 00:16:02;;;;;;;4.53;4.13;;;5.00;99.90;;;;;;5008683;28;20221;-67
2022/01/11 00:18:30;;;;;;;6.00;4.75;;;5.00;99.90;;;;;;5025226;28;20663;-66
2022/01/11 00:20:58;;;;;;;6.45;5.70;;;5.00;99.90;;;;;;5013107;28;20557;-68
2022/01/11 00:26:15;;;;;;;6.60;5.05;;;5.00;99.90;;;;;;5020029;28;20248;-68
2022/01/11 00:28:43;;;;;;;4.65;4.07;;;5.00;99.90;;;;;;5027325;28;20583;-68
2022/01/11 00:31:26;;;;;;;7.45;5.30;;;5.00;99.90;;;;;;5026135;28;20225;-68
2022/01/11 00:33:54;;;;;;;6.85;4.20;;;5.00;99.90;;;;;;5028695;28;20193;-67
2022/01/11 00:36:29;;;;;;;5.75;4.95;;;5.00;99.90;;;;;;5026635;28;20679;-67
2022/01/11 00:38:59;;;;;;;6.15;4.55;;;5.00;99.90;;;;;;5026988;28;20182;-67
2022/01/11 00:41:27;;;;;;;5.20;4.70;;;5.00;99.90;;;;;;5025378;28;20641;-65
2022/01/11 00:43:55;;;;;;;4.57;4.18;;;5.00;99.90;;;;;;5028601;28;20634;-68
2022/01/11 00:46:23;;;;;;;4.70;4.20;;;5.00;99.90;;;;;;5025950;28;20232;-67
2022/01/11 00:48:51;;;;;;;4.35;3.95;;;5.00;99.90;;;;;;5027446;28;20281;-67
2022/01/11 00:51:19;;;;;;;5.25;4.35;;;5.00;99.90;;;;;;5028241;28;20271;-67
2022/01/11 00:53:48;;;;;;;6.47;5.05;;;5.00;99.90;;;;;;5026372;28;20247;-66
2022/01/11 00:56:17;;;;;;;6.05;4.45;;;5.00;99.90;;;;;;5010527;28;20218;-67
2022/01/11 00:58:46;;;;;;;4.60;3.95;;;5.00;99.90;;;;;;5027140;28;20230;-69
2022/01/11 01:01:14;;;;;;;4.93;4.10;;;5.00;99.90;;;;;;5026609;28;20201;-68
2022/01/11 01:03:42;;;;;;;5.57;4.80;;;5.00;99.90;;;;;;5028069;28;20814;-69
2022/01/11 01:06:11;;;;;;;5.20;4.70;;;5.00;99.90;;;;;;5027798;28;20290;-66
2022/01/11 01:08:39;;;;;;;4.82;4.05;;;5.00;99.90;;;;;;5026946;28;20667;-67
2022/01/11 01:11:10;;;;;;;5.20;4.22;;;5.00;99.90;;;;;;5021102;28;20300;-67
2022/01/11 01:13:45;;;;;;;5.88;5.05;;;5.00;99.90;;;;;;5026860;28;20207;-68
2022/01/11 01:16:13;;;;;;;5.78;4.40;;;5.00;99.90;;;;;;5025333;28;20229;-68
2022/01/11 01:18:53;;;;;;;6.32;5.03;;;5.00;99.90;;;;;;5016104;28;20197;-68
2022/01/11 01:21:22;;;;;;;5.10;3.53;;;5.00;99.90;;;;;;5007044;28;20232;-65
2022/01/11 01:23:50;;;;;;;5.57;4.45;;;5.00;99.90;;;;;;5023795;28;20763;-66
2022/01/11 01:26:18;;;;;;;5.97;4.18;;;5.00;99.90;;;;;;5026288;28;20213;-67
2022/01/11 01:28:48;;;;;;;6.85;5.15;;;5.00;99.90;;;;;;5026382;28;20343;-66
2022/01/11 01:31:18;;;;;;;5.93;4.47;;;4.90;99.90;;;;;;5021429;28;20213;-67
2022/01/11 01:33:46;;;;;;;4.97;4.40;;;5.00;99.90;;;;;;5026319;28;20193;-66
2022/01/11 01:36:14;;;;;;;5.07;4.40;;;4.90;99.90;;;;;;5027280;28;20300;-67
2022/01/11 01:38:42;;;;;;;8.38;4.90;;;4.90;99.90;;;;;;5025881;28;20220;-67
2022/01/11 01:41:16;;;;;;;5.78;5.10;;;5.00;99.90;;;;;;5020269;28;20280;-66
2022/01/11 01:43:46;;;;;;;5.65;4.25;;;4.90;99.90;;;;;;5027297;28;20217;-68
2022/01/11 01:46:16;;;;;;;6.60;4.88;;;4.90;99.90;;;;;;5024766;28;20702;-68
2022/01/11 01:48:45;;;;;;;4.65;3.85;;;4.90;99.90;;;;;;5021753;28;20193;-68
2022/01/11 01:51:14;;;;;;;4.22;3.72;;;4.90;99.90;;;;;;5012054;28;20197;-66
2022/01/11 01:53:45;;;;;;;6.90;4.38;;;4.90;99.90;;;;;;5024492;28;20227;-68
2022/01/11 01:56:14;;;;;;;7.38;5.53;;;4.90;99.90;;;;;;5020764;28;20233;-65
2022/01/11 01:58:43;;;;;;;6.28;5.30;;;4.90;99.90;;;;;;5025850;28;20208;-67
2022/01/11 02:01:13;;;;;;;6.00;3.85;;;4.90;99.90;;;;;;5021828;28;20704;-66
2022/01/11 02:03:45;;;;;;;5.70;5.10;;;4.90;99.90;;;;;;5025031;28;20205;-67
2022/01/11 02:06:14;;;;;;;4.85;4.20;;;4.90;99.90;;;;;;5026627;28;20216;-65
2022/01/11 02:08:44;;;;;;;5.68;5.07;;;4.90;99.90;;;;;;5027273;28;20859;-67
2022/01/11 02:11:15;;;;;;;7.43;4.45;;;4.80;99.90;;;;;;5025292;28;20648;-67
2022/01/11 02:13:45;;;;;;;5.20;4.70;;;4.90;99.90;;;;;;5025490;28;20531;-67
2022/01/11 02:16:16;;;;;;;5.72;4.10;;;4.90;99.90;;;;;;5024328;28;20267;-67
2022/01/11 02:18:46;;;;;;;6.28;4.78;;;4.90;99.90;;;;;;5025675;28;20446;-68
2022/01/11 02:21:21;;;;;;;6.63;4.97;;;4.90;99.90;;;;;;5011528;28;20524;-68
2022/01/11 02:23:50;;;;;;;4.72;4.22;;;4.80;99.90;;;;;;5024437;28;20230;-67
2022/01/11 02:26:21;;;;;;;5.68;4.50;;;4.80;99.90;;;;;;5020411;28;20244;-66
2022/01/11 02:28:50;;;;;;;5.22;4.00;;;4.90;99.90;;;;;;5024731;28;20306;-67
2022/01/11 02:31:19;;;;;;;5.60;4.07;;;4.80;99.90;;;;;;5025177;28;20722;-67
2022/01/11 02:33:56;;;;;;;5.82;4.90;;;4.80;99.90;;;;;;5025439;28;20774;-65
2022/01/11 02:36:44;;;;;;;6.15;4.75;;;4.80;99.90;;;;;;5026771;28;20220;-67
2022/01/11 02:39:22;;;;;;;5.35;4.82;;;4.80;99.90;;;;;;5022856;28;20209;-68
2022/01/11 02:41:57;;;;;;;4.45;3.42;;;4.80;99.90;;;;;;5024966;28;20246;-67
2022/01/11 02:44:40;;;;;;;5.45;4.18;;;4.80;99.90;;;;;;5008591;28;20210;-65
2022/01/11 02:47:12;;;;;;;7.03;5.68;;;4.80;99.90;;;;;;5019049;28;20244;-65
2022/01/11 02:49:40;;;;;;;6.38;4.93;;;4.80;99.90;;;;;;5024887;28;20659;-67
2022/01/11 02:52:14;;;;;;;6.28;4.72;;;4.80;99.90;;;;;;5025434;28;20638;-66
2022/01/11 02:54:47;;;;;;;4.97;4.30;;;4.80;99.90;;;;;;5025634;28;20203;-66
2022/01/11 02:57:20;;;;;;;5.20;4.30;;;4.80;99.90;;;;;;5024361;28;20225;-67
2022/01/11 02:59:52;;;;;;;5.57;4.55;;;4.80;99.90;;;;;;5026805;28;20280;-67
2022/01/11 03:02:21;;;;;;;6.25;4.80;;;4.80;99.90;;;;;;5027624;28;20231;-66
2022/01/11 03:04:51;;;;;;;4.70;3.60;;;4.80;99.90;;;;;;5028512;28;20206;-67
2022/01/11 03:07:22;;;;;;;5.63;4.78;;;4.80;99.90;;;;;;5025348;28;20233;-68
2022/01/11 03:10:02;;;;;;;5.90;5.05;;;4.80;99.90;;;;;;5019731;28;20228;-65
2022/01/11 03:12:37;;;;;;;7.05;5.35;;;4.80;99.90;;;;;;5025245;28;20218;-66
2022/01/11 03:15:06;;;;;;;5.68;4.35;;;4.80;99.90;;;;;;5012882;28;20224;-66
2022/01/11 03:17:35;;;;;;;6.32;4.72;;;4.80;99.90;;;;;;5027027;28;20737;-67
2022/01/11 03:20:05;;;;;;;6.43;5.30;;;4.80;99.90;;;;;;5030399;28;20205;-68
2022/01/11 03:22:35;;;;;;;5.20;4.70;;;4.80;99.90;;;;;;5029885;28;20225;-67
2022/01/11 03:25:06;;;;;;;7.40;4.57;;;4.70;99.90;;;;;;5025234;28;20704;-66
2022/01/11 03:27:34;;;;;;;5.68;4.18;;;4.80;99.90;;;;;;5008291;28;20233;-68
2022/01/11 03:30:04;;;;;;;6.45;5.10;;;4.80;99.90;;;;;;5027261;28;20224;-66
2022/01/11 03:32:33;;;;;;;6.10;4.90;;;4.70;99.90;;;;;;5024024;28;20238;-67
2022/01/11 03:35:12;;;;;;;5.85;4.63;;;4.70;99.90;;;;;;5027730;28;20197;-67
2022/01/11 03:37:46;;;;;;;5.93;4.80;;;4.70;99.90;;;;;;5028302;28;20224;-67
2022/01/11 03:40:17;;;;;;;5.95;4.32;;;4.70;99.90;;;;;;5024016;28;20258;-67
2022/01/11 03:42:46;;;;;;;7.57;5.40;;;4.70;99.90;;;;;;5014919;28;20221;-66
2022/01/11 03:45:21;;;;;;;6.63;4.50;;;4.70;99.90;;;;;;5028186;28;20213;-66
2022/01/11 03:47:53;;;;;;;4.60;4.00;;;4.70;99.90;;;;;;5015699;28;20223;-66
2022/01/11 03:50:22;;;;;;;6.45;4.70;;;4.70;99.90;;;;;;5028649;28;20204;-65
2022/01/11 03:52:58;;;;;;;4.97;3.65;;;4.80;99.90;;;;;;5027393;28;20221;-66
2022/01/11 03:55:44;;;;;;;6.60;4.80;;;4.70;99.90;;;;;;5024058;28;20197;-67
2022/01/11 03:58:16;;;;;;;6.00;3.92;;;4.80;99.90;;;;;;5017297;28;20216;-68
2022/01/11 04:00:45;;;;;;;3.67;3.33;;;4.80;99.90;;;;;;5026750;28;20197;-67
2022/01/11 04:03:14;;;;;;;4.97;4.35;;;4.70;99.90;;;;;;5018984;28;20212;-67
2022/01/11 04:05:44;;;;;;;5.07;4.05;;;4.80;99.90;;;;;;5010772;28;20230;-66
2022/01/11 04:08:14;;;;;;;6.55;3.90;;;4.80;99.90;;;;;;5011745;28;20595;-66
2022/01/11 04:10:42;;;;;;;5.40;4.70;;;4.80;99.90;;;;;;5028702;28;20208;-66
2022/01/11 04:13:11;;;;;;;6.75;4.00;;;4.80;99.90;;;;;;5027360;28;20235;-67
2022/01/11 04:15:40;;;;;;;4.00;3.60;;;4.80;99.90;;;;;;5026323;28;20271;-66
2022/01/11 04:18:11;;;;;;;5.28;4.55;;;4.80;99.90;;;;;;5009226;28;20292;-68
2022/01/11 04:20:41;;;;;;;7.25;5.85;;;4.80;99.90;;;;;;5027518;28;20193;-67
2022/01/11 04:23:12;;;;;;;4.32;3.30;;;4.70;99.90;;;;;;5028724;28;20231;-66
2022/01/11 04:25:42;;;;;;;5.65;4.05;;;4.70;99.90;;;;;;5008282;28;20244;-67
2022/01/11 04:28:10;;;;;;;4.95;4.28;;;4.70;99.90;;;;;;5017172;28;20725;-65
2022/01/11 04:30:38;;;;;;;6.25;3.92;;;4.70;99.90;;;;;;5026672;28;20251;-67
2022/01/11 04:33:09;;;;;;;6.68;5.07;;;4.70;99.90;;;;;;4991147;28;20226;-66
2022/01/11 04:35:38;;;;;;;6.60;4.78;;;4.70;99.90;;;;;;5016378;28;20209;-68
2022/01/11 04:38:06;;;;;;;7.45;4.85;;;4.70;99.90;;;;;;5026520;28;20225;-66
2022/01/11 04:40:34;;;;;;;5.28;4.20;;;4.70;99.90;;;;;;5028194;28;20642;-67
2022/01/11 04:43:04;;;;;;;4.38;3.67;;;4.70;99.90;;;;;;5026925;28;20331;-66
2022/01/11 04:45:32;;;;;;;4.78;3.63;;;4.70;99.90;;;;;;5026280;28;20267;-67
2022/01/11 04:48:01;;;;;;;5.05;4.38;;;4.70;99.90;;;;;;5023435;28;20232;-68
2022/01/11 04:50:30;;;;;;;4.95;4.50;;;4.70;99.90;;;;;;5013173;28;20562;-67
2022/01/11 04:52:58;;;;;;;4.03;3.63;;;4.70;99.90;;;;;;5027625;28;20715;-67
2022/01/11 04:55:28;;;;;;;6.10;4.40;;;4.70;99.90;;;;;;5023814;28;20198;-66
2022/01/11 04:57:57;;;;;;;5.20;4.32;;;4.70;99.90;;;;;;5006959;28;20229;-67
2022/01/11 05:00:26;;;;;;;5.95;4.93;;;4.70;99.90;;;;;;5026879;28;20204;-66
2022/01/11 05:02:58;;;;;;;5.80;4.53;;;4.70;99.90;;;;;;5022396;28;20308;-68
2022/01/11 05:05:30;;;;;;;3.78;3.30;;;4.70;99.90;;;;;;5009389;28;20212;-67
2022/01/11 05:08:01;;;;;;;5.00;3.97;;;4.70;99.90;;;;;;5007903;28;20226;-68
2022/01/11 05:10:30;;;;;;;4.22;3.67;;;4.70;99.90;;;;;;5021890;28;20525;-67
2022/01/11 05:13:01;;;;;;;4.30;3.65;;;4.70;99.90;;;;;;5014826;28;20225;-66
2022/01/11 05:15:31;;;;;;;4.40;3.88;;;4.80;99.90;;;;;;5025857;28;20299;-67
2022/01/11 05:18:01;;;;;;;4.65;3.70;;;4.70;99.90;;;;;;5025824;28;20235;-67
2022/01/11 05:20:33;;;;;;;4.45;3.38;;;4.70;99.90;;;;;;5026490;28;20651;-67
2022/01/11 05:23:01;;;;;;;3.60;3.00;;;4.70;99.90;;;;;;5025676;28;20229;-67
2022/01/11 05:25:29;;;;;;;4.70;4.03;;;4.70;99.90;;;;;;5025928;28;20580;-67
2022/01/11 05:27:59;;;;;;;5.32;4.20;;;4.70;99.90;;;;;;5025972;28;20252;-66
2022/01/11 05:30:28;;;;;;;4.22;3.50;;;4.70;99.90;;;;;;5026281;28;20563;-67
2022/01/11 05:32:58;;;;;;;4.72;3.42;;;4.70;99.90;;;;;;5006878;28;20707;-67
2022/01/11 05:35:26;;;;;;;4.28;3.70;;;4.70;99.90;;;;;;5009567;28;20185;-66
2022/01/11 05:37:55;;;;;;;6.22;4.22;;;4.80;99.90;;;;;;5026047;28;20225;-67
2022/01/11 05:40:24;;;;;;;3.97;3.60;;;4.70;99.90;;;;;;5025809;28;20197;-67
2022/01/11 05:42:57;;;;;;;4.65;3.60;;;4.70;99.90;;;;;;5025688;28;20229;-66
2022/01/11 05:45:25;;;;;;;4.30;3.35;;;4.70;99.90;;;;;;5026131;28;20698;-67
2022/01/11 05:47:53;;;;;;;3.63;2.95;;;4.70;99.90;;;;;;5008035;28;20279;-66
2022/01/11 05:50:26;;;;;;;3.75;3.45;;;4.70;99.90;;;;;;5006763;28;20197;-67
2022/01/11 05:52:54;;;;;;;5.15;3.88;;;4.70;99.90;;;;;;5006528;28;20221;-67
2022/01/11 05:55:22;;;;;;;6.50;3.90;;;4.70;99.90;;;;;;5024956;28;20204;-66
2022/01/11 05:57:54;;;;;;;4.10;3.65;;;4.70;99.90;;;;;;5026157;28;20298;-67
2022/01/11 06:00:22;;;;;;;3.70;3.25;;;4.70;99.90;;;;;;5040009;28;20559;-67
2022/01/11 06:02:54;;;;;;;3.85;3.47;;;4.70;99.90;;;;;;5006748;28;20229;-67
2022/01/11 06:05:37;;;;;;;4.55;3.55;;;4.70;99.90;;;;;;5026117;28;20217;-68
2022/01/11 06:08:08;;;;;;;5.25;3.50;;;4.70;99.90;;;;;;5025581;28;20251;-66
2022/01/11 06:10:39;;;;;;;4.95;3.80;;;4.70;99.90;;;;;;5020209;28;20378;-67
2022/01/11 06:13:07;;;;;;;5.53;4.30;;;4.60;99.90;;;;;;5021125;28;20232;-67
2022/01/11 06:15:35;;;;;;;4.32;3.92;;;4.60;99.90;;;;;;5024957;28;20229;-67
2022/01/11 06:18:04;;;;;;;7.72;4.38;;;4.70;99.90;;;;;;5036300;28;20347;-68
2022/01/11 06:20:40;;;;;;;4.25;3.85;;;4.60;99.90;;;;;;5025578;28;20199;-66
2022/01/11 06:23:09;;;;;;;5.72;4.38;;;4.60;99.90;;;;;;5025939;28;20300;-67
2022/01/11 06:25:39;;;;;;;5.75;4.43;;;4.60;99.90;;;;;;5017261;28;20213;-68
2022/01/11 06:28:07;;;;;;;6.57;4.28;;;4.60;99.90;;;;;;5025824;28;20224;-68
2022/01/11 06:30:35;;;;;;;5.15;4.43;;;4.60;99.90;;;;;;5025492;28;20270;-67
2022/01/11 06:33:04;;;;;;;4.78;4.32;;;4.60;99.90;;;;;;5006174;28;20249;-67
2022/01/11 06:35:32;;;;;;;6.43;4.47;;;4.60;99.90;;;;;;5011093;28;20214;-67
2022/01/11 06:38:02;;;;;;;5.88;4.65;;;4.60;99.90;;;;;;5030731;28;20316;-67
2022/01/11 06:40:30;;;;;;;6.55;4.40;;;4.50;99.90;;;;;;5025361;28;20208;-67
2022/01/11 06:43:00;;;;;;;5.43;3.85;;;4.50;99.90;;;;;;5020408;28;20221;-68
2022/01/11 06:45:29;;;;;;;6.07;4.30;;;4.50;99.90;;;;;;5030817;28;20280;-65
2022/01/11 06:48:02;;;;;;;7.03;4.68;;;4.60;99.90;;;;;;5044800;28;21573;-67
2022/01/11 06:50:31;;;;;;;5.68;4.50;;;4.50;99.90;;;;;;5029817;28;20193;-65
2022/01/11 06:53:01;;;;;;;5.43;4.55;;;4.50;99.90;;;;;;5029057;28;20225;-67
2022/01/11 06:55:31;;;;;;;5.43;4.40;;;4.50;99.90;;;;;;5014886;28;20208;-67
2022/01/11 06:58:05;;;;;;;6.88;4.45;;;4.50;99.90;;;;;;5011207;28;20236;-66
2022/01/11 07:00:33;;;;;;;6.90;5.15;;;4.50;99.90;;;;;;5030157;28;20189;-66
2022/01/11 07:03:06;;;;;;;5.57;4.85;;;4.50;99.90;;;;;;5018912;28;20272;-67
2022/01/11 07:06:02;;;;;;;6.45;5.20;;;4.50;99.90;;;;;;5028794;28;20217;-67
2022/01/11 07:08:33;;;;;;;5.45;4.80;;;4.50;99.90;;;;;;5028678;28;20873;-67
2022/01/11 07:11:02;;;;;;;5.97;4.03;;;4.40;99.90;;;;;;5025794;28;20233;-67
2022/01/11 07:13:32;;;;;;;7.25;5.00;;;4.40;99.90;;;;;;5009415;28;20249;-66
2022/01/11 07:16:01;;;;;;;5.65;4.28;;;4.40;99.90;;;;;;5023625;28;20246;-66
2022/01/11 07:18:30;;;;;;;8.20;5.35;;;4.40;99.90;;;;;;5029981;28;20209;-66
2022/01/11 07:21:03;;;;;;;7.60;4.55;;;4.40;99.90;;;;;;5029106;28;20194;-67
2022/01/11 07:23:34;;;;;;;6.18;4.53;;;4.40;99.90;;;;;;5014719;28;20229;-67
2022/01/11 07:26:07;;;;;;;6.40;4.05;;;4.40;99.90;;;;;;5028265;28;20217;-67
2022/01/11 07:28:36;;;;;;;6.07;3.92;;;4.40;99.90;;;;;;5028536;28;20244;-66
2022/01/11 07:31:08;;;;;;;5.68;4.97;;;4.40;99.90;;;;;;5024246;28;20248;-67
2022/01/11 07:33:44;;;;;;;7.30;5.40;;;4.40;99.90;;;;;;5028788;28;20283;-68
2022/01/11 07:36:13;;;;;;;6.00;4.82;;;4.40;99.90;;;;;;5028273;28;20244;-68
2022/01/11 07:38:45;;;;;;;6.43;5.00;;;4.40;99.90;;;;;;5028494;28;20618;-66
2022/01/11 07:41:20;;;;;;;7.25;4.85;;;4.40;99.90;;;;;;5024604;28;20211;-68
2022/01/11 07:44:15;;;;;;;6.15;4.30;;;4.40;99.90;;;;;;5008429;28;20209;-68
2022/01/11 07:46:45;;;;;;;4.50;4.03;;;4.40;99.90;;;;;;5019448;28;20225;-66
2022/01/11 07:49:25;;;;;;;6.50;5.05;;;4.40;99.90;;;;;;5029160;28;20495;-68
2022/01/11 07:51:53;;;;;;;7.78;4.68;;;4.40;99.90;;;;;;5027991;28;20220;-68
2022/01/11 07:54:23;;;;;;;10.32;4.60;;;4.40;99.90;;;;;;5029534;28;20201;-68
2022/01/11 07:56:51;;;;;;;6.13;4.90;;;4.40;99.90;;;;;;5025300;28;20683;-67
2022/01/11 07:59:20;;;;;;;5.53;4.43;;;4.40;99.90;;;;;;5028269;28;20197;-66
2022/01/11 08:01:57;;;;;;;4.90;4.38;;;4.40;99.90;;;;;;5018434;28;20308;-66
2022/01/11 08:04:30;;;;;;;6.03;5.15;;;4.40;99.90;;;;;;5027936;28;20191;-67
2022/01/11 08:06:59;;;;;;;4.55;3.58;;;4.40;99.90;;;;;;5027250;28;20229;-66
2022/01/11 08:09:38;;;;;;;7.00;4.70;;;4.40;99.90;;;;;;5028136;28;20185;-66
2022/01/11 08:12:08;;;;;;;7.60;6.03;;;4.30;99.90;;;;;;5023668;28;20220;-66
2022/01/11 08:14:36;;;;;;;5.25;3.72;;;4.30;99.90;;;;;;5025226;28;20340;-66
2022/01/11 08:17:04;;;;;;;7.53;4.82;;;4.30;99.90;;;;;;5017823;28;20231;-66
2022/01/11 08:19:32;;;;;;;7.05;5.00;;;4.30;99.90;;;;;;5028248;28;20201;-67
2022/01/11 08:22:02;;;;;;;5.45;4.70;;;4.30;99.90;;;;;;5027476;28;20572;-67
2022/01/11 08:24:58;;;;;;;7.50;5.65;;;4.30;99.90;;;;;;5026672;28;20197;-66
2022/01/11 08:27:27;;;;;;;5.68;4.50;;;4.30;99.90;;;;;;5025731;28;20221;-67
2022/01/11 08:29:55;;;;;;;6.65;5.00;;;4.30;99.90;;;;;;5027768;28;20605;-66
2022/01/11 08:32:23;;;;;;;6.63;4.55;;;4.30;99.90;;;;;;5022978;28;20235;-67
2022/01/11 08:34:52;;;;;;;4.85;4.20;;;4.30;99.90;;;;;;5016416;28;20219;-68
2022/01/11 08:37:20;;;;;;;7.30;4.05;;;4.30;99.90;;;;;;5027055;28;20225;-65
2022/01/11 08:39:49;;;;;;;6.90;5.05;;;4.30;99.90;;;;;;5027419;28;20304;-65
2022/01/11 08:42:19;;;;;;;5.38;4.65;;;4.30;99.90;;;;;;5011279;28;20224;-67
2022/01/11 08:44:49;;;;;;;7.00;4.82;;;4.30;99.90;;;;;;5023459;28;20203;-67
2022/01/11 08:47:21;;;;;;;6.20;4.45;;;4.30;99.90;;;;;;5022711;28;20229;-67
2022/01/11 08:49:50;;;;;;;4.60;3.88;;;4.30;99.90;;;;;;5023633;28;20201;-67
2022/01/11 08:52:18;;;;;;;7.70;5.57;;;4.30;99.90;;;;;;5027323;28;20225;-67
2022/01/11 08:54:46;;;;;;;5.80;4.22;;;4.30;99.90;;;;;;5022749;28;20280;-67
2022/01/11 08:57:18;;;;;;;5.65;4.88;;;4.30;99.90;;;;;;5019291;28;20249;-68
2022/01/11 08:59:49;;;;;;;5.78;4.93;;;4.40;99.90;;;;;;5027657;28;20197;-68
2022/01/11 09:02:20;;;;;;;4.63;4.22;;;4.40;99.90;;;;;;5025386;28;20618;-66
2022/01/11 09:04:52;;;;;;;5.63;4.18;;;4.30;99.90;;;;;;5027037;28;20197;-68
2022/01/11 09:07:23;;;;;;;4.95;4.15;;;4.30;99.90;;;;;;5026993;28;20324;-66
2022/01/11 09:09:55;;;;;;;7.82;4.82;;;4.40;99.90;;;;;;5017752;28;20185;-67
2022/01/11 09:12:24;;;;;;;6.40;4.22;;;4.40;99.90;;;;;;5009542;28;20225;-64
2022/01/11 09:14:55;;;;;;;6.13;4.47;;;4.40;99.90;;;;;;5022934;28;20223;-65
2022/01/11 09:17:23;;;;;;;6.80;4.50;;;4.40;99.90;;;;;;5026206;28;20316;-68
2022/01/11 09:19:53;;;;;;;6.93;4.25;;;4.40;99.90;;;;;;5027120;28;20556;-67
2022/01/11 09:22:23;;;;;;;5.30;4.78;;;4.40;99.90;;;;;;5026588;28;20274;-67
2022/01/11 09:24:52;;;;;;;6.78;4.45;;;4.40;99.90;;;;;;5028997;28;20202;-66
2022/01/11 09:27:25;;;;;;;5.05;4.55;;;4.40;99.90;;;;;;5021867;28;20237;-66
2022/01/11 09:29:57;;;;;;;5.32;3.67;;;4.40;99.90;;;;;;5028089;28;20197;-67
2022/01/11 09:32:27;;;;;;;6.90;4.65;;;4.40;99.90;;;;;;5023600;28;20262;-66
2022/01/11 09:34:57;;;;;;;7.60;4.45;;;4.40;99.90;;;;;;5026971;28;20189;-67
2022/01/11 09:37:28;;;;;;;4.63;3.75;;;4.40;99.90;;;;;;5025957;28;20231;-67
2022/01/11 09:39:57;;;;;;;5.70;4.45;;;4.50;99.90;;;;;;5026719;28;20189;-67
2022/01/11 09:42:28;;;;;;;5.32;4.63;;;4.50;99.90;;;;;;5024648;28;20227;-67
2022/01/11 09:45:01;;;;;;;5.25;3.67;;;4.50;99.90;;;;;;5023587;28;20386;-67
2022/01/11 09:47:34;;;;;;;5.63;4.47;;;4.50;99.90;;;;;;5022168;28;20263;-67
2022/01/11 09:50:03;;;;;;;5.00;3.88;;;4.50;99.90;;;;;;5022585;28;20671;-66
2022/01/11 09:52:32;;;;;;;4.50;3.97;;;4.50;99.90;;;;;;5002198;28;20264;-66
2022/01/11 09:55:00;;;;;;;7.22;5.05;;;4.50;99.90;;;;;;5018397;28;20201;-68
2022/01/11 09:57:30;;;;;;;5.18;4.68;;;4.50;99.90;;;;;;5025575;28;20237;-68
2022/01/11 10:00:20;;;;;;;7.60;4.40;;;4.50;99.90;;;;;;5027234;28;20193;-67
2022/01/11 10:03:03;;;;;;;6.00;4.38;;;4.50;99.90;;;;;;5006520;28;20221;-66
2022/01/11 10:05:48;;;;;;;5.78;3.92;;;4.50;99.90;;;;;;5006887;28;20610;-68
2022/01/11 10:08:24;;;;;;;4.72;3.53;;;4.50;99.90;;;;;;5008930;28;20778;-68
2022/01/11 10:10:54;;;;;;;4.45;3.63;;;4.50;99.90;;;;;;5026382;28;20749;-67
2022/01/11 10:13:30;;;;;;;4.20;3.80;;;4.50;99.90;;;;;;5012396;28;20226;-68
2022/01/11 10:16:21;;;;;;;5.10;4.45;;;4.60;99.90;;;;;;5026171;28;20313;-67
2022/01/11 10:18:52;;;;;;;3.83;3.40;;;4.50;99.90;;;;;;5015794;28;20243;-67
2022/01/11 10:21:37;;;;;;;4.43;4.03;;;4.50;99.90;;;;;;5030213;28;20197;-66
2022/01/11 10:24:25;;;;;;;3.53;3.08;;;4.50;99.90;;;;;;5017265;28;20209;-68
2022/01/11 10:26:57;;;;;;;5.82;4.25;;;4.50;99.90;;;;;;5031873;28;20217;-67
2022/01/11 10:29:30;;;;;;;5.00;3.65;;;4.50;99.90;;;;;;5031930;28;20217;-67
2022/01/11 10:32:14;;;;;;;5.70;4.55;;;4.50;99.90;;;;;;5018433;28;20218;-67
2022/01/11 10:34:47;;;;;;;4.60;3.25;;;4.50;99.90;;;;;;5010453;28;20197;-68
2022/01/11 10:37:27;;;;;;;4.10;3.45;;;4.50;99.90;;;;;;5010022;28;20700;-67
2022/01/11 10:40:16;;;;;;;4.65;3.83;;;4.50;99.90;;;;;;5010774;28;20204;-68
2022/01/11 10:42:48;;;;;;;5.63;4.05;;;4.50;99.90;;;;;;5010080;28;20276;-65
2022/01/11 10:45:20;;;;;;;5.65;4.95;;;4.50;99.90;;;;;;5010591;28;20182;-67
2022/01/11 10:47:53;;;;;;;4.65;3.88;;;4.50;99.90;;;;;;5024609;28;20336;-65
2022/01/11 10:50:28;;;;;;;5.65;4.63;;;4.50;99.90;;;;;;5011128;28;20206;-67
2022/01/11 10:53:00;;;;;;;5.28;4.22;;;4.50;99.90;;;;;;5029375;28;20221;-67
2022/01/11 10:55:32;;;;;;;5.80;4.50;;;4.50;99.90;;;;;;5024978;28;20580;-67
2022/01/11 10:58:14;;;;;;;7.40;4.85;;;4.50;99.90;;;;;;5027089;28;20231;-66
2022/01/11 11:00:46;;;;;;;6.38;4.85;;;4.40;99.90;;;;;;5027746;28;20738;-68
2022/01/11 11:03:17;;;;;;;5.47;4.20;;;4.40;99.90;;;;;;5029121;28;20618;-65
2022/01/11 11:05:54;;;;;;;5.80;3.95;;;4.40;99.90;;;;;;5029421;28;20209;-67
2022/01/11 11:08:30;;;;;;;4.60;4.20;;;4.40;99.90;;;;;;5028256;28;20579;-67
2022/01/11 11:11:09;;;;;;;4.50;3.83;;;4.40;99.90;;;;;;5024323;28;20272;-67
2022/01/11 11:13:42;;;;;;;4.88;4.05;;;4.40;99.90;;;;;;5009726;28;20233;-68
2022/01/11 11:16:15;;;;;;;5.70;3.65;;;4.40;99.90;;;;;;5021392;28;20714;-68
2022/01/11 11:18:52;;;;;;;5.65;3.97;;;4.40;99.90;;;;;;5029252;28;20292;-68
2022/01/11 11:21:26;;;;;;;5.53;3.95;;;4.40;99.90;;;;;;5027487;28;20197;-67
2022/01/11 11:23:56;;;;;;;4.82;4.30;;;4.40;99.90;;;;;;5026568;28;20198;-68
2022/01/11 11:26:27;;;;;;;5.35;4.20;;;4.40;99.90;;;;;;5015049;28;20217;-66
2022/01/11 11:28:55;;;;;;;6.53;4.13;;;4.40;99.90;;;;;;5030080;28;20241;-67
2022/01/11 11:31:29;;;;;;;4.90;3.92;;;4.40;99.90;;;;;;5027210;28;20193;-67
2022/01/11 11:33:59;;;;;;;3.67;3.20;;;4.40;99.90;;;;;;5030430;28;20270;-67
2022/01/11 11:36:28;;;;;;;5.05;3.90;;;4.40;99.90;;;;;;5028270;28;20709;-65
2022/01/11 11:39:00;;;;;;;4.93;4.43;;;4.40;99.90;;;;;;5022610;28;20190;-67
2022/01/11 11:41:30;;;;;;;5.13;3.70;;;4.40;99.90;;;;;;5029285;28;20255;-68
2022/01/11 11:44:12;;;;;;;4.20;2.78;;;4.40;99.90;;;;;;5030172;28;20189;-66
2022/01/11 11:46:46;;;;;;;4.30;3.75;;;4.40;99.90;;;;;;5010813;28;20237;-66
2022/01/11 11:49:17;;;;;;;6.75;5.45;;;4.40;99.90;;;;;;5029985;28;20251;-68
2022/01/11 11:51:45;;;;;;;4.55;4.05;;;4.50;99.90;;;;;;5029142;28;20275;-67
2022/01/11 11:54:15;;;;;;;6.93;4.35;;;4.40;99.90;;;;;;5023748;28;20252;-67
2022/01/11 11:56:59;;;;;;;3.97;3.47;;;4.40;99.90;;;;;;5012644;28;20221;-66
2022/01/11 11:59:27;;;;;;;5.32;3.92;;;4.50;99.90;;;;;;5030010;28;20694;-67
2022/01/11 12:01:58;;;;;;;7.28;4.30;;;4.40;99.90;;;;;;5017946;28;20225;-67
2022/01/11 12:04:55;;;;;;;6.97;4.65;;;4.40;99.90;;;;;;5028107;28;20212;-67
2022/01/11 12:07:37;;;;;;;3.80;3.33;;;4.40;99.90;;;;;;5028806;28;20252;-67
2022/01/11 12:10:09;;;;;;;4.32;3.92;;;4.40;99.90;;;;;;5017676;28;20256;-67
2022/01/11 12:12:52;;;;;;;5.40;4.13;;;4.40;99.90;;;;;;5022178;28;20228;-67
2022/01/11 12:15:37;;;;;;;6.22;5.28;;;4.40;99.90;;;;;;5029450;28;20209;-66
2022/01/11 12:18:13;;;;;;;4.53;4.05;;;4.50;99.90;;;;;;5025450;28;20247;-67
2022/01/11 12:20:45;;;;;;;7.65;3.58;;;4.40;99.90;;;;;;5029353;28;20635;-67
2022/01/11 12:23:20;;;;;;;6.50;4.30;;;4.40;99.90;;;;;;5027513;28;20256;-67
2022/01/11 12:25:53;;;;;;;6.68;4.28;;;4.40;99.90;;;;;;5015730;28;20679;-67
2022/01/11 12:28:23;;;;;;;6.20;3.85;;;4.40;99.90;;;;;;5028524;28;20243;-68
2022/01/11 12:30:52;;;;;;;8.55;4.78;;;4.40;99.90;;;;;;5026073;28;20209;-66
2022/01/11 12:33:22;;;;;;;4.90;3.78;;;4.50;99.90;;;;;;5019005;28;20224;-67
2022/01/11 12:35:55;;;;;;;5.68;5.07;;;4.40;99.90;;;;;;5028755;28;20877;-67
2022/01/11 12:38:27;;;;;;;6.82;4.85;;;4.50;99.90;;;;;;5028505;28;20227;-67
2022/01/11 12:40:56;;;;;;;5.72;4.82;;;4.40;99.90;;;;;;5023511;28;20285;-67
2022/01/11 12:43:40;;;;;;;5.22;4.50;;;4.40;99.90;;;;;;5010302;28;20588;-67
2022/01/11 12:46:10;;;;;;;6.85;4.80;;;4.50;99.90;;;;;;5023495;28;20217;-67
2022/01/11 12:49:00;;;;;;;4.20;3.40;;;4.50;99.90;;;;;;5011969;28;20245;-67
2022/01/11 12:51:33;;;;;;;6.38;4.57;;;4.50;99.90;;;;;;5027326;28;20892;-67
2022/01/11 12:54:21;;;;;;;4.60;4.07;;;4.50;99.90;;;;;;5026964;28;20243;-65
2022/01/11 12:56:52;;;;;;;5.32;3.97;;;4.50;99.90;;;;;;5018279;28;20282;-65
2022/01/11 12:59:20;;;;;;;7.68;5.90;;;4.50;99.90;;;;;;5028672;28;20189;-67
2022/01/11 13:01:58;;;;;;;4.95;3.88;;;4.50;99.90;;;;;;5017481;28;20226;-65
2022/01/11 13:04:42;;;;;;;7.80;4.82;;;4.50;99.90;;;;;;5009018;28;20193;-67
2022/01/11 13:07:20;;;;;;;11.88;5.15;;;4.50;99.90;;;;;;5027178;28;20232;-66
2022/01/11 13:10:08;;;;;;;6.95;4.80;;;4.50;99.90;;;;;;5017826;28;20210;-66
2022/01/11 13:12:52;;;;;;;8.90;5.25;;;4.50;99.90;;;;;;5013251;28;20300;-66
2022/01/11 13:15:25;;;;;;;6.00;4.47;;;4.50;99.90;;;;;;5027598;28;20211;-66
2022/01/11 13:18:07;;;;;;;6.95;4.85;;;4.50;99.90;;;;;;5034521;28;20224;-67
2022/01/11 13:20:57;;;;;;;5.50;3.80;;;4.50;99.90;;;;;;5008541;28;20208;-68
2022/01/11 13:23:32;;;;;;;5.60;4.25;;;4.50;99.90;;;;;;5024446;28;20225;-66
2022/01/11 13:26:02;;;;;;;5.43;4.07;;;4.50;99.90;;;;;;5022276;28;20212;-67